Terminal Aerodrome Forecast
Issued by NWS Cleveland, OH

Home | Current Version | Previous Version | Graphics & Text | Print | Product List | Glossary On
Versions: 1 2 3 4 5 6 7 8 9 10 11 12 13 14 15 16 17 18
000
FTUS41 KCLE 231000 AAA
TAFYNG
TAF AMD
KYNG 231029Z 2310/2406 24006KT P6SM VCTS SCT035CB BKN080
      TEMPO 2311/2314 4SM -SHRA OVC035
     FM231400 27006KT P6SM BKN035 OVC080
      TEMPO 2314/2317 5SM -SHRA BKN015
     FM231700 33010KT P6SM OVC015
     FM232000 33010KT P6SM BKN025
     FM232200 33008KT P6SM BKN035
     FM240000 33006KT P6SM BKN045=

USA.gov is the U.S. government's official web portal to all federal, state and local government web resources and services.